Flight Track Log - Related Links

Times and Time Zones

All times are in EDT time to prevent confusion due to time zone crossing. See the EJA695 flight status page for this flight to view local times or setup timezone preferences in your user account.

Time Position Orientation Groundspeed Altitude Reporting Facility
EDT Latitude Longitude Course Direction KTS MPH feet Rate Location/Type
Mon 09:59:44 PM 28.3000 -81.4333 North 138 159 600  Level Orlando TRACON
Mon 10:00:38 PM 28.3333 -81.4333 360° North 231 266 1,800 1,895 Climbing Orlando TRACON
Mon 10:01:38 PM 28.3500 -81.5000 286° West 245 282 4,200 2,357 Climbing Orlando TRACON
Mon 10:03:26 PM 28.4683 -81.5467 341° North 278 320 8,400 2,321 Climbing Jacksonville Center
Mon 10:04:26 PM 28.5500 -81.5692 346° North 288 331 10,700 2,250 Climbing Jacksonville Center
Mon 10:05:00 PM 28.9053 -81.3833 North  Level FlightAware Approximate
Mon 10:05:26 PM 28.6356 -81.5728 358° North 294 338 12,900  Level Jacksonville Center
Mon 10:06:26 PM 28.7211 -81.5692 North 299 344 15,200 2,000 Climbing Jacksonville Center
Mon 10:07:26 PM 28.8108 -81.5633 North 305 351 16,900 1,550 Climbing Jacksonville Center
Mon 10:08:26 PM 28.9028 -81.5619 North 317 365 18,300 1,450 Climbing Jacksonville Center
Mon 10:09:26 PM 29.0028 -81.5558 North 335 386 19,800 1,550 Climbing Jacksonville Center
Mon 10:10:26 PM 29.1008 -81.5547 North 340 391 21,400 1,550 Climbing Jacksonville Center
Mon 10:11:26 PM 29.1989 -81.5486 North 346 398 22,900 1,500 Climbing Jacksonville Center
Mon 10:12:26 PM 29.2969 -81.5494 360° North 346 398 24,400 1,250 Climbing Jacksonville Center
Mon 10:13:26 PM 29.3972 -81.5458 North 346 398 25,400 1,000 Climbing Jacksonville Center
Mon 10:14:26 PM 29.4994 -81.5419 North 351 404 26,400 1,000 Climbing Jacksonville Center
Mon 10:15:26 PM 29.6017 -81.5383 North 356 410 27,400 1,050 Climbing Jacksonville Center
Mon 10:16:26 PM 29.7081 -81.5344 North 367 422 28,500 1,050 Climbing Jacksonville Center
Mon 10:17:26 PM 29.8103 -81.5306 North 367 422 29,500 1,000 Climbing Jacksonville Center
Mon 10:18:26 PM 29.9147 -81.5194 North 367 422 30,500 1,000 Climbing Jacksonville Center
Mon 10:19:26 PM 30.0167 -81.5036 North 367 422 31,500 1,000 Climbing Jacksonville Center
Mon 10:20:26 PM 30.1189 -81.4878 North 367 422 32,500 1,000 Climbing Jacksonville Center
Mon 10:21:26 PM 30.2231 -81.4742 North 367 422 33,500 1,100 Climbing Jacksonville Center
Mon 10:22:26 PM 30.3378 -81.4581 North 373 429 34,700 1,100 Climbing Jacksonville Center
Mon 10:23:26 PM 30.4400 -81.4422 North 373 429 35,700 950 Climbing Jacksonville Center
Mon 10:24:26 PM 30.5442 -81.4286 North 373 429 36,600 1,000 Climbing Jacksonville Center
Mon 10:25:26 PM 30.6442 -81.4150 North 367 422 37,700 1,000 Climbing Jacksonville Center
Mon 10:26:26 PM 30.7464 -81.3939 10° North 367 422 38,600 1,000 Climbing Jacksonville Center
Mon 10:27:26 PM 30.8375 -81.3514 22° Northeast 357 411 39,700 1,000 Climbing Jacksonville Center
Mon 10:28:26 PM 30.9289 -81.3086 22° Northeast 352 405 40,600 650 Climbing Jacksonville Center
Mon 10:29:26 PM 31.0222 -81.2611 24° Northeast 352 405 41,000 200 Climbing Jacksonville Center
Mon 10:30:26 PM 31.1178 -81.2158 22° Northeast 352 405 41,000  Level Jacksonville Center
Mon 10:31:26 PM 31.2175 -81.1703 21° North 368 423 41,000  Level Jacksonville Center
Mon 10:32:26 PM 31.3169 -81.1197 23° Northeast 382 440 41,000  Level Jacksonville Center
Mon 10:33:26 PM 31.4164 -81.0717 22° Northeast 387 445 41,000  Level Jacksonville Center
Mon 10:34:26 PM 31.5119 -81.0258 22° Northeast 392 451 41,000  Level Jacksonville Center
Mon 10:35:26 PM 31.6236 -80.9700 23° Northeast 392 451 41,000  Level Jacksonville Center
Mon 10:36:26 PM 31.7272 -80.9189 23° Northeast 392 451 41,000  Level Jacksonville Center
Mon 10:37:26 PM 31.8206 -80.8731 23° Northeast 392 451 41,000  Level Jacksonville Center
Mon 10:38:26 PM 31.9386 -80.8167 22° Northeast 397 457 41,000  Level Jacksonville Center
Mon 10:39:26 PM 32.0319 -80.7728 22° Northeast 397 457 41,000  Level Jacksonville Center
Mon 10:40:26 PM 32.1311 -80.7214 24° Northeast 392 451 41,000  Level Jacksonville Center
Mon 10:41:26 PM 32.2389 -80.6672 23° Northeast 386 444 41,000  Level Jacksonville Center
Mon 10:42:26 PM 32.3425 -80.6206 21° North 391 450 41,000  Level Jacksonville Center
Mon 10:43:26 PM 32.4417 -80.5689 24° Northeast 385 443 41,000  Level Jacksonville Center
Mon 10:44:26 PM 32.5431 -80.5194 22° Northeast 390 449 41,000  Level Jacksonville Center
Mon 10:45:26 PM 32.6444 -80.4675 23° Northeast 389 448 41,000  Level Jacksonville Center
Mon 10:46:26 PM 32.7436 -80.4178 23° Northeast 389 448 41,000  Level Jacksonville Center
Mon 10:47:26 PM 32.8469 -80.3656 23° Northeast 389 448 41,000  Level Jacksonville Center
Mon 10:48:26 PM 32.9544 -80.3131 22° Northeast 395 455 41,000  Level Jacksonville Center
Mon 10:49:26 PM 33.0556 -80.2606 24° Northeast 403 464 41,000  Level Jacksonville Center
Mon 10:50:26 PM 33.1525 -80.2106 23° Northeast 395 455 41,000  Level Jacksonville Center
Mon 10:51:26 PM 33.2519 -80.1653 21° North 410 472 41,000  Level Jacksonville Center
Mon 10:52:26 PM 33.3531 -80.1125 24° Northeast 404 465 41,000  Level Jacksonville Center
Mon 10:53:26 PM 33.4539 -80.0594 24° Northeast 397 457 41,000  Level Jacksonville Center
Mon 10:54:26 PM 33.5550 -80.0089 23° Northeast 392 451 41,000  Level Jacksonville Center
Mon 10:55:26 PM 33.6542 -79.9583 23° Northeast 392 451 41,000  Level Jacksonville Center
Mon 10:56:26 PM 33.7592 -79.9047 23° Northeast 392 451 41,000  Level Jacksonville Center
Mon 10:57:26 PM 33.8622 -79.8489 24° Northeast 392 451 41,000  Level Jacksonville Center
Mon 10:58:26 PM 33.9653 -79.7978 22° Northeast 392 451 41,000  Level Jacksonville Center
Mon 11:00:47 PM 34.2042 -79.6772 23° Northeast 368 423 41,000  Level Washington Center
Mon 11:01:47 PM 34.2958 -79.6214 27° Northeast 398 458 41,000  Level Washington Center
Mon 11:02:45 PM 34.3997 -79.5711 22° Northeast 404 465 41,000  Level Washington Center
Mon 11:03:45 PM 34.5017 -79.5183 23° Northeast 404 465 41,000  Level Washington Center
Mon 11:04:47 PM 34.6014 -79.4650 24° Northeast 394 453 41,000  Level Washington Center
Mon 11:05:47 PM 34.7014 -79.4117 24° Northeast 394 453 41,000  Level Washington Center
Mon 11:06:45 PM 34.8031 -79.3583 23° Northeast 394 453 41,000  Level Washington Center
Mon 11:07:45 PM 34.9069 -79.3047 23° Northeast 394 453 41,000  Level Washington Center
Mon 11:08:46 PM 35.0089 -79.2486 24° Northeast 399 459 41,000  Level Washington Center
Mon 11:09:48 PM 35.1128 -79.1950 23° Northeast 399 459 41,000  Level Washington Center
Mon 11:10:45 PM 35.2144 -79.1411 23° Northeast 404 465 41,000  Level Washington Center
Mon 11:11:46 PM 35.3311 -79.0775 24° Northeast 411 473 41,000  Level Washington Center
Mon 11:12:48 PM 35.4308 -79.0256 23° Northeast 402 463 41,000  Level Washington Center
Mon 11:13:45 PM 35.5325 -78.9739 22° Northeast 402 463 41,000  Level Washington Center
Mon 11:14:46 PM 35.6361 -78.9194 23° Northeast 402 463 41,000  Level Washington Center
Mon 11:15:46 PM 35.7378 -78.8622 25° Northeast 402 463 41,000  Level Washington Center
Mon 11:16:47 PM 35.8417 -78.8053 24° Northeast 402 463 41,000  Level Washington Center
Mon 11:17:47 PM 35.9433 -78.7503 24° Northeast 402 463 41,000  Level Washington Center
Mon 11:18:47 PM 36.0428 -78.6925 25° Northeast 402 463 41,000  Level Washington Center
Mon 11:19:46 PM 36.1425 -78.6347 25° Northeast 396 456 41,000  Level Washington Center
Mon 11:20:47 PM 36.2461 -78.5769 24° Northeast 396 456 41,000  Level Washington Center
Mon 11:21:45 PM 36.3478 -78.5189 25° Northeast 396 456 41,000  Level Washington Center
Mon 11:22:45 PM 36.4472 -78.4606 25° Northeast 396 456 41,000  Level Washington Center
Mon 11:23:46 PM 36.5486 -78.4025 25° Northeast 396 456 41,000  Level Washington Center
Mon 11:24:47 PM 36.6503 -78.3439 25° Northeast 396 456 41,000  Level Washington Center
Mon 11:25:47 PM 36.7392 -78.2928 25° Northeast 396 456 41,000  Level Washington Center
Mon 11:26:45 PM 36.8406 -78.2314 26° Northeast 396 456 41,000  Level Washington Center
Mon 11:27:45 PM 36.9547 -78.1625 26° Northeast 401 461 41,000  Level Washington Center
Mon 11:28:45 PM 37.0433 -78.1158 23° Northeast 401 461 41,000  Level Washington Center
Mon 11:29:45 PM 37.1467 -78.0567 25° Northeast 396 456 41,000  Level Washington Center
Mon 11:30:46 PM 37.2503 -77.9975 24° Northeast 401 461 41,000  Level Washington Center
Mon 11:31:45 PM 37.3517 -77.9353 26° Northeast 401 461 41,000  Level Washington Center
Mon 11:32:46 PM 37.4550 -77.8758 25° Northeast 406 467 41,000  Level Washington Center
Mon 11:33:45 PM 37.5522 -77.8106 28° Northeast 401 461 41,000  Level Washington Center
Mon 11:34:48 PM 37.6433 -77.7267 36° Northeast 401 461 41,000  Level Washington Center
Mon 11:35:47 PM 37.7344 -77.6425 36° Northeast 401 461 41,000  Level Washington Center
Mon 11:36:45 PM 37.8233 -77.5608 36° Northeast 401 461 41,000  Level Washington Center
Mon 11:37:45 PM 37.9164 -77.4792 35° Northeast 401 461 41,000  Level Washington Center
Mon 11:38:47 PM 38.0053 -77.3942 37° Northeast 401 461 41,000  Level Washington Center
Mon 11:39:45 PM 38.0922 -77.3094 37° Northeast 389 448 41,000  Level Washington Center
Mon 11:40:45 PM 38.1808 -77.2242 37° Northeast 389 448 41,000 -344 Level Washington Center
Mon 11:41:47 PM 38.2717 -77.1336 38° Northeast 397 457 40,300 -1,339 Descending Washington Center
Mon 11:42:46 PM 38.3561 -77.0533 37° Northeast 397 457 38,300 -2,017 Descending Washington Center
Mon 11:43:46 PM 38.4469 -76.9622 38° Northeast 397 457 36,300 -2,000 Descending Washington Center
Mon 11:44:46 PM 38.5356 -76.8736 38° Northeast 402 463 34,300 -2,017 Descending Washington Center
Mon 11:45:45 PM 38.6239 -76.7847 38° Northeast 402 463 32,300 -1,967 Descending Washington Center
Mon 11:46:48 PM 38.7164 -76.6986 36° Northeast 402 463 30,300 -2,016 Descending Washington Center
Mon 11:47:47 PM 38.8069 -76.6067 38° Northeast 402 463 28,200 -2,154 Descending Washington Center
Mon 11:48:45 PM 38.8994 -76.5144 38° Northeast 407 468 26,100 -2,067 Descending Washington Center
Mon 11:49:46 PM 38.9917 -76.4194 39° Northeast 412 474 24,100 -1,050 Descending Washington Center
Mon 11:50:45 PM 39.0842 -76.3269 38° Northeast 418 481 24,000 -50 Descending Washington Center
Mon 11:51:47 PM 39.1722 -76.2394 38° Northeast 411 473 24,000  Level Washington Center
Mon 11:52:45 PM 39.2622 -76.1492 38° Northeast 404 465 24,000 -967 Level Washington Center
Mon 11:54:47 PM 39.4500 -75.9667 37° Northeast 393 452 21,100 -1,714 Descending Philadelphia TRACON
Mon 11:55:47 PM 39.5333 -75.8667 43° Northeast 382 440 18,800 -2,000 Descending Philadelphia TRACON
Mon 11:56:47 PM 39.6167 -75.7833 38° Northeast 364 419 17,100 -1,842 Descending Philadelphia TRACON
Mon 11:57:41 PM 39.6833 -75.7167 38° Northeast 371 427 15,300 -1,947 Descending Philadelphia TRACON
Mon 11:58:41 PM 39.7667 -75.6333 38° Northeast 368 423 13,400 -1,150 Descending Philadelphia TRACON
Mon 11:59:41 PM 39.8500 -75.5500 38° Northeast 359 413 13,000 -200 Descending Philadelphia TRACON
Tue 12:00:41 AM 39.9333 -75.4833 32° Northeast 366 421 13,000  Level Philadelphia TRACON
Tue 12:01:41 AM 40.0000 -75.4000 44° Northeast 359 413 13,000  Level Philadelphia TRACON
Tue 12:02:35 AM 40.0833 -75.3333 31° Northeast 360 414 13,000  Level Philadelphia TRACON
Tue 12:03:35 AM 40.1667 -75.2667 31° Northeast 342 394 13,000 -800 Level Philadelphia TRACON
Tue 12:04:35 AM 40.2333 -75.2000 37° Northeast 318 366 11,400 -1,589 Descending Philadelphia TRACON
Tue 12:06:06 AM 40.3333 -75.1000 37° Northeast 290 334 9,000 -1,597 Descending New York TRACON
Tue 12:06:54 AM 40.3667 -75.0333 57° Northeast 277 319 7,700 -1,111 Descending New York TRACON
Tue 12:07:54 AM 40.4333 -74.9667 37° Northeast 273 314 7,000 -368 Descending New York TRACON
Tue 12:08:48 AM 40.4667 -74.9000 57° Northeast 269 310 7,000 -50 Level New York TRACON
Tue 12:09:54 AM 40.5000 -74.8000 66° East 269 310 6,900 -571 Descending New York TRACON
Tue 12:10:54 AM 40.5167 -74.7000 78° East 276 318 5,800 -1,158 Descending New York TRACON
Tue 12:11:48 AM 40.5167 -74.6167 90° East 282 325 4,700 -1,400 Descending New York TRACON
Tue 12:12:54 AM 40.5333 -74.5167 78° East 241 277 3,000 -1,048 Descending New York TRACON
Tue 12:13:54 AM 40.5833 -74.4667 37° Northeast 222 255 2,500 -500 Descending New York TRACON
Tue 12:14:54 AM 40.6167 -74.4000 57° Northeast 199 229 2,000 -250 Descending New York TRACON
Tue 12:15:54 AM 40.6500 -74.3500 49° Northeast 202 232 2,000  Level New York TRACON
Tue 12:16:54 AM 40.6833 -74.3000 49° Northeast 204 235 2,000 -150 Level New York TRACON
Tue 12:17:54 AM 40.7167 -74.2500 49° Northeast 167 192 1,700 -250 Descending New York TRACON
Tue 12:18:54 AM 40.7500 -74.2000 49° Northeast 170 196 1,500 -100 Descending New York TRACON
Tue 12:19:54 AM 40.7833 -74.1667 37° Northeast 171 197 1,500 -250 Level New York TRACON
Tue 12:20:54 AM 40.8167 -74.1167 49° Northeast 126 145 1,000 -550 Descending New York TRACON
Tue 12:21:54 AM 40.8333 -74.0833 57° Northeast 126 145 400 -600 Descending New York TRACON
Tue 12:23:00 AM 40.8500 -74.0500 49° Northeast  Level FlightAware Approximate

Login

Don't have an account? Register now (free) for customized features, flight alerts, and more!